Yuci, China
Current Conditions -  °F | °C
As of 7:00 AM on Tuesday 21 Oct 2014 (Local Time) from ZBYN Reporting Station
Haze Haze  
Wind Chill: 46°   Ceiling: Unl
Heat Index: 46°   Visibility: 0.75mi
Dew Point: 43°   Wind: 2mph
Humidity: 87%   Direction: 40°NE
Pressure: 30.21"   Gusts: NA
Location:  37.68°N, 112.73°E
Report Text: ZBYN 202300Z 04001MPS 1200 R31/1500N BR NSC 08/06 Q1023 BECMGTL00501600
Loading
Personal Weather Stations






























Interactive Weather Map
Tropical Storm Tracking
New forecast layout! Learn more

10-Day Weather Forecast

Advertisements
Track Severe Weather on mobile